createdAt,value
2019-02-04T00:01:56.324Z,14.23
2019-02-04T00:04:26.443Z,15.80
2019-02-04T00:06:57.407Z,13.90
2019-02-04T00:09:27.470Z,16.00
2019-02-04T00:11:57.551Z,14.90
2019-02-04T00:14:34.885Z,12.10
2019-02-04T00:17:13.130Z,13.27
2019-02-04T00:19:46.847Z,17.03
2019-02-04T00:22:22.736Z,14.97
2019-02-04T00:24:52.980Z,12.80
2019-02-04T00:27:23.059Z,11.27
2019-02-04T00:29:53.115Z,15.90
2019-02-04T00:32:23.275Z,12.23
2019-02-04T00:34:53.334Z,13.23
2019-02-04T00:37:23.367Z,12.90
2019-02-04T00:39:53.429Z,13.07
2019-02-04T00:42:23.511Z,16.27
2019-02-04T00:44:53.564Z,13.70
2019-02-04T00:47:24.106Z,12.13
2019-02-04T00:49:54.187Z,15.70
2019-02-04T00:52:24.247Z,12.53
2019-02-04T00:54:54.803Z,12.53
2019-02-04T00:57:24.884Z,13.10
2019-02-04T00:59:55.128Z,13.33
2019-02-04T01:02:25.227Z,11.30
2019-02-04T01:04:55.503Z,16.03
2019-02-04T01:07:25.545Z,12.80
2019-02-04T01:09:55.762Z,12.93
2019-02-04T01:12:25.965Z,14.20
2019-02-04T01:14:56.180Z,12.23
2019-02-04T01:17:26.283Z,16.10
2019-02-04T01:19:56.361Z,14.77
2019-02-04T01:22:26.436Z,14.03
2019-02-04T01:24:56.499Z,15.03
2019-02-04T01:27:26.925Z,16.70
2019-02-04T01:29:57.141Z,14.40
2019-02-04T01:32:28.275Z,14.43
2019-02-04T01:34:58.370Z,13.43
2019-02-04T01:37:28.436Z,13.70
2019-02-04T01:39:58.773Z,14.37
2019-02-04T01:42:28.808Z,10.73
2019-02-04T01:44:58.974Z,11.13
2019-02-04T01:47:29.047Z,14.90
2019-02-04T01:49:59.265Z,10.97
2019-02-04T01:52:29.352Z,11.87
2019-02-04T01:54:59.618Z,11.73
2019-02-04T01:57:29.686Z,15.73
2019-02-04T01:59:59.822Z,12.90
2019-02-04T02:02:29.866Z,16.83
2019-02-04T02:04:59.902Z,13.23
2019-02-04T02:07:30.147Z,11.37
2019-02-04T02:10:00.340Z,13.10
2019-02-04T02:12:30.437Z,12.63
2019-02-04T02:15:00.461Z,15.63
2019-02-04T02:17:30.556Z,13.20
2019-02-04T02:20:00.610Z,15.13
2019-02-04T02:22:30.688Z,14.90
2019-02-04T02:25:03.244Z,13.47
2019-02-04T02:27:33.279Z,12.17
2019-02-04T02:30:03.653Z,14.87
2019-02-04T02:32:33.754Z,15.20
2019-02-04T02:35:04.580Z,12.13
2019-02-04T02:37:34.718Z,14.70
2019-02-04T02:40:06.661Z,12.70
2019-02-04T02:42:36.742Z,16.47
2019-02-04T02:45:08.176Z,15.87
2019-02-04T02:47:40.414Z,14.40
2019-02-04T02:50:10.782Z,18.20
2019-02-04T02:52:41.019Z,15.33
2019-02-04T02:55:12.342Z,14.43
2019-02-04T02:57:42.632Z,14.30
2019-02-04T03:00:15.821Z,15.97
2019-02-04T03:02:45.965Z,14.63
2019-02-04T03:05:16.374Z,18.10
2019-02-04T03:07:47.034Z,16.70
2019-02-04T03:10:20.111Z,18.00
2019-02-04T03:12:50.421Z,15.53
2019-02-04T03:15:20.539Z,16.57
2019-02-04T03:17:52.456Z,19.97
2019-02-04T03:20:22.406Z,18.43
2019-02-04T03:22:52.550Z,16.20
2019-02-04T03:25:22.981Z,14.93
2019-02-04T03:27:53.041Z,16.67
2019-02-04T03:30:28.640Z,14.33
2019-02-04T03:32:58.719Z,14.60
2019-02-04T03:35:28.828Z,17.13
2019-02-04T03:37:59.266Z,15.97
2019-02-04T03:40:31.669Z,14.50
2019-02-04T03:43:01.814Z,15.47
2019-02-04T03:45:31.866Z,15.17
2019-02-04T03:48:09.067Z,15.00
2019-02-04T03:50:33.767Z,25.13
2019-02-04T03:53:04.182Z,19.33
2019-02-04T03:55:34.358Z,14.53
2019-02-04T03:58:04.612Z,17.97
2019-02-04T04:00:36.117Z,18.67
2019-02-04T04:03:06.302Z,15.63
2019-02-04T04:05:36.417Z,19.93
2019-02-04T04:08:06.707Z,18.77
2019-02-04T04:10:36.783Z,18.70
2019-02-04T04:13:06.855Z,18.13
2019-02-04T04:15:37.300Z,22.10
2019-02-04T04:18:15.581Z,22.33
2019-02-04T04:20:39.143Z,20.70
2019-02-04T04:23:09.278Z,21.17
2019-02-04T04:25:39.667Z,23.83
2019-02-04T04:28:09.757Z,23.97
2019-02-04T04:30:40.738Z,23.57
2019-02-04T04:33:10.839Z,23.47
2019-02-04T04:35:43.106Z,25.57
2019-02-04T04:38:13.298Z,29.40
2019-02-04T04:40:43.670Z,27.73
2019-02-04T04:43:14.218Z,67.77
2019-02-04T04:45:44.405Z,75.80
2019-02-04T04:48:14.628Z,91.50
2019-02-04T04:50:44.687Z,90.37
2019-02-04T04:53:14.813Z,79.77
2019-02-04T04:55:46.908Z,58.00
2019-02-04T04:58:17.039Z,97.77
2019-02-04T05:01:05.928Z,51.43
2019-02-04T05:03:36.739Z,83.77
2019-02-04T05:06:06.797Z,60.97
2019-02-04T05:08:36.978Z,86.83
2019-02-04T05:11:07.005Z,77.77
2019-02-04T05:13:37.110Z,66.83
2019-02-04T05:16:07.176Z,53.93
2019-02-04T05:18:38.536Z,45.23
2019-02-04T05:21:09.873Z,46.23
2019-02-04T05:23:40.282Z,42.30
2019-02-04T05:26:10.336Z,38.67
2019-02-04T05:28:40.538Z,39.03
2019-02-04T05:31:10.693Z,37.30
2019-02-04T05:33:41.786Z,37.67
2019-02-04T05:36:11.972Z,34.50
2019-02-04T05:38:42.004Z,36.87
2019-02-04T05:41:12.200Z,35.30
2019-02-04T05:43:42.280Z,39.70
2019-02-04T05:46:12.706Z,39.07
2019-02-04T05:48:49.338Z,45.03
2019-02-04T05:51:16.431Z,38.57
2019-02-04T05:53:46.503Z,39.00
2019-02-04T05:56:16.667Z,42.53
2019-02-04T05:58:46.792Z,66.13
2019-02-04T06:01:17.103Z,161.17
2019-02-04T06:03:47.496Z,111.37
2019-02-04T06:06:17.727Z,80.60
2019-02-04T06:08:47.780Z,75.73
2019-02-04T06:11:19.000Z,144.87
2019-02-04T06:13:49.019Z,129.70
2019-02-04T06:16:19.261Z,141.83
2019-02-04T06:19:00.171Z,68.47
2019-02-04T06:21:21.173Z,55.77
2019-02-04T06:23:51.250Z,83.37
2019-02-04T06:26:21.452Z,51.90
2019-02-04T06:28:51.563Z,65.80
2019-02-04T06:31:21.682Z,48.87
2019-02-04T06:33:51.773Z,50.20
2019-02-04T06:36:21.960Z,60.57
2019-02-04T06:38:52.008Z,48.10
2019-02-04T06:41:22.109Z,49.40
2019-02-04T06:43:52.214Z,51.43
2019-02-04T06:46:25.059Z,45.63
2019-02-04T06:48:55.133Z,50.27
2019-02-04T06:51:25.183Z,44.93
2019-02-04T06:53:55.272Z,45.80
2019-02-04T06:56:25.329Z,51.87
2019-02-04T06:58:55.366Z,47.37
2019-02-04T07:01:25.471Z,51.97
2019-02-04T07:03:55.546Z,44.03
2019-02-04T07:06:25.927Z,51.27
2019-02-04T07:08:56.024Z,42.87
2019-02-04T07:11:26.102Z,36.43
2019-02-04T07:13:56.179Z,42.23
2019-02-04T07:16:26.306Z,44.33
2019-02-04T07:18:56.393Z,44.43
2019-02-04T07:21:26.631Z,42.83
2019-02-04T07:23:56.694Z,37.43
2019-02-04T07:26:26.730Z,41.63
2019-02-04T07:28:56.793Z,33.33
2019-02-04T07:31:26.919Z,38.23
2019-02-04T07:33:57.013Z,38.87
2019-02-04T07:36:27.091Z,41.93
2019-02-04T07:38:58.617Z,40.67
2019-02-04T07:41:28.722Z,42.73
2019-02-04T07:43:58.886Z,35.07
2019-02-04T07:46:28.963Z,34.80
2019-02-04T07:48:59.523Z,40.13
2019-02-04T07:51:29.581Z,37.00
2019-02-04T07:53:59.925Z,43.80
2019-02-04T07:56:30.405Z,38.40
2019-02-04T07:59:03.356Z,36.40
2019-02-04T08:01:34.975Z,37.60
2019-02-04T08:04:06.934Z,34.37
2019-02-04T08:06:38.553Z,35.97
2019-02-04T08:09:10.794Z,35.63
2019-02-04T08:11:41.616Z,29.97
2019-02-04T08:14:14.218Z,33.73
2019-02-04T08:16:45.340Z,34.60
2019-02-04T08:19:16.315Z,33.50
2019-02-04T08:21:48.874Z,28.13
2019-02-04T08:24:19.521Z,32.13
2019-02-04T08:26:50.847Z,31.90
2019-02-04T08:29:21.539Z,27.80
2019-02-04T08:31:52.574Z,29.20
2019-02-04T08:34:23.341Z,26.83
2019-02-04T08:36:53.530Z,28.07
2019-02-04T08:39:23.587Z,25.77
2019-02-04T08:41:53.676Z,25.00
2019-02-04T08:44:25.299Z,30.03
2019-02-04T08:46:55.560Z,23.53
2019-02-04T08:49:25.726Z,27.10
2019-02-04T08:51:55.789Z,29.20
2019-02-04T08:54:26.127Z,24.27
2019-02-04T08:56:56.188Z,21.53
2019-02-04T08:59:26.250Z,21.37
2019-02-04T09:01:56.324Z,29.67
2019-02-04T09:04:26.391Z,33.50
2019-02-04T09:06:56.448Z,25.57
2019-02-04T09:09:27.014Z,28.73
2019-02-04T09:11:57.428Z,22.80
2019-02-04T09:14:27.671Z,24.47
2019-02-04T09:16:57.745Z,27.20
2019-02-04T09:19:27.810Z,21.00
2019-02-04T09:21:57.894Z,25.27
2019-02-04T09:24:28.116Z,30.60
2019-02-04T09:26:58.177Z,22.13
2019-02-04T09:29:28.262Z,20.27
2019-02-04T09:31:58.335Z,26.87
2019-02-04T09:34:29.948Z,24.27
2019-02-04T09:37:00.279Z,22.10
2019-02-04T09:39:30.337Z,18.37
2019-02-04T09:42:00.521Z,23.40
2019-02-04T09:44:30.587Z,19.73
2019-02-04T09:47:00.684Z,19.43
2019-02-04T09:49:30.734Z,18.17
2019-02-04T09:52:01.114Z,23.00
2019-02-04T09:54:31.156Z,24.10
2019-02-04T09:57:01.222Z,24.43
2019-02-04T09:59:31.294Z,20.43
2019-02-04T10:02:01.354Z,21.67
2019-02-04T10:04:31.397Z,20.47
2019-02-04T10:07:01.564Z,24.30
2019-02-04T10:09:31.735Z,22.93
2019-02-04T10:12:01.800Z,29.80
2019-02-04T10:14:32.120Z,28.90
2019-02-04T10:17:02.137Z,29.03
2019-02-04T10:19:32.519Z,23.77
2019-02-04T10:22:02.621Z,23.10
2019-02-04T10:24:32.688Z,33.83
2019-02-04T10:27:02.848Z,27.53
2019-02-04T10:29:32.924Z,29.83
2019-02-04T10:32:03.091Z,27.93
2019-02-04T10:34:33.253Z,27.03
2019-02-04T10:37:03.343Z,26.00
2019-02-04T10:39:33.673Z,25.30
2019-02-04T10:42:03.803Z,21.67
2019-02-04T10:44:33.917Z,27.47
2019-02-04T10:47:04.458Z,24.47
2019-02-04T10:49:34.562Z,25.60
2019-02-04T10:52:04.698Z,26.23
2019-02-04T10:54:34.856Z,25.07
2019-02-04T10:57:04.883Z,29.57
2019-02-04T10:59:34.921Z,24.63
2019-02-04T11:02:05.748Z,25.53
2019-02-04T11:04:35.806Z,27.60
2019-02-04T11:07:06.132Z,33.80
2019-02-04T11:09:37.028Z,32.83
2019-02-04T11:12:07.162Z,34.20
2019-02-04T11:14:37.531Z,29.40
2019-02-04T11:17:07.656Z,25.53
2019-02-04T11:19:37.789Z,23.20
2019-02-04T11:22:07.903Z,31.60
2019-02-04T11:24:38.380Z,24.07
2019-02-04T11:27:08.856Z,34.07
2019-02-04T11:29:38.926Z,28.43
2019-02-04T11:32:09.047Z,31.13
2019-02-04T11:34:39.120Z,32.17
2019-02-04T11:37:09.297Z,33.23
2019-02-04T11:39:40.299Z,27.97
2019-02-04T11:42:10.431Z,33.40
2019-02-04T11:44:40.524Z,31.10
2019-02-04T11:47:10.723Z,33.17
2019-02-04T11:49:40.826Z,40.23
2019-02-04T11:52:10.895Z,35.87
2019-02-04T11:54:42.148Z,40.70
2019-02-04T11:57:12.415Z,39.30
2019-02-04T11:59:42.495Z,36.43
2019-02-04T12:02:12.985Z,32.53
2019-02-04T12:04:43.032Z,38.37
2019-02-04T12:07:14.004Z,36.33
2019-02-04T12:09:44.714Z,37.67
2019-02-04T12:12:15.193Z,39.37
2019-02-04T12:14:45.279Z,40.83
2019-02-04T12:17:16.029Z,29.70
2019-02-04T12:19:46.166Z,29.07
2019-02-04T12:22:16.751Z,33.70
2019-02-04T12:24:46.916Z,30.80
2019-02-04T12:27:17.527Z,29.23
2019-02-04T12:29:47.675Z,28.23
2019-02-04T12:32:18.243Z,32.07
2019-02-04T12:34:48.594Z,36.57
2019-02-04T12:37:18.786Z,28.90
2019-02-04T12:39:48.856Z,35.20
2019-02-04T12:42:19.030Z,33.30
2019-02-04T12:44:49.110Z,34.50
2019-02-04T12:47:19.413Z,34.13
2019-02-04T12:49:49.660Z,28.07
2019-02-04T12:52:21.106Z,26.10
2019-02-04T12:54:51.172Z,28.03
2019-02-04T12:57:21.220Z,27.90
2019-02-04T12:59:51.269Z,47.93
2019-02-04T13:02:21.612Z,25.20
2019-02-04T13:04:51.649Z,26.87
2019-02-04T13:07:21.728Z,23.57
2019-02-04T13:09:53.895Z,24.10
2019-02-04T13:12:23.988Z,27.00
2019-02-04T13:14:54.035Z,26.67
2019-02-04T13:17:26.846Z,25.70
2019-02-04T13:19:55.874Z,24.37
2019-02-04T13:22:25.934Z,24.87
2019-02-04T13:24:55.984Z,25.53
2019-02-04T13:27:26.489Z,27.67
2019-02-04T13:29:56.793Z,23.87
2019-02-04T13:32:28.320Z,26.80
2019-02-04T13:34:58.394Z,23.93
2019-02-04T13:37:28.429Z,18.60
2019-02-04T13:39:58.497Z,20.57
2019-02-04T13:42:28.838Z,21.80
2019-02-04T13:44:58.900Z,19.30
2019-02-04T13:47:29.065Z,19.63
2019-02-04T13:49:59.146Z,18.30
2019-02-04T13:52:29.202Z,17.77
2019-02-04T13:55:00.894Z,15.77
2019-02-04T13:57:30.977Z,17.00
2019-02-04T14:00:01.065Z,18.93
2019-02-04T14:02:31.174Z,13.37
2019-02-04T14:05:01.358Z,16.73
2019-02-04T14:07:31.583Z,18.33
2019-02-04T14:10:01.966Z,15.73
2019-02-04T14:12:32.232Z,18.00
2019-02-04T14:15:02.436Z,14.87
2019-02-04T14:17:32.500Z,12.83
2019-02-04T14:20:02.602Z,20.13
2019-02-04T14:22:33.037Z,15.90
2019-02-04T14:25:03.484Z,20.43
2019-02-04T14:27:33.543Z,17.97
2019-02-04T14:30:05.292Z,14.10
2019-02-04T14:32:35.496Z,18.07
2019-02-04T14:35:06.404Z,16.47
2019-02-04T14:37:37.521Z,17.63
2019-02-04T14:40:18.017Z,17.27
2019-02-04T14:42:42.916Z,17.83
2019-02-04T14:45:36.590Z,23.33
2019-02-04T14:49:08.057Z,16.27
2019-02-04T14:52:44.699Z,22.63
2019-02-04T14:55:50.611Z,19.40
2019-02-04T14:59:16.383Z,24.87
2019-02-04T15:02:53.957Z,27.03
2019-02-04T15:05:39.073Z,27.13
2019-02-04T15:08:56.897Z,25.20
2019-02-04T15:12:06.981Z,26.17
2019-02-04T15:15:19.180Z,25.97
2019-02-04T15:18:17.609Z,30.67
2019-02-04T15:21:15.408Z,25.77
2019-02-04T15:24:26.286Z,32.43
2019-02-04T15:27:41.426Z,29.67
2019-02-04T15:30:33.069Z,33.47
2019-02-04T15:33:52.348Z,30.83
2019-02-04T15:36:51.351Z,32.87
2019-02-04T15:40:05.347Z,31.27
2019-02-04T15:43:30.386Z,34.07
2019-02-04T15:46:41.109Z,28.63
2019-02-04T15:49:50.702Z,39.80
2019-02-04T15:52:20.655Z,28.00
2019-02-04T15:54:50.985Z,35.50
2019-02-04T15:57:21.473Z,40.23
2019-02-04T15:59:54.192Z,43.70
2019-02-04T16:02:26.726Z,43.90
2019-02-04T16:04:57.300Z,39.83
2019-02-04T16:07:30.698Z,43.77
2019-02-04T16:10:04.139Z,37.20
2019-02-04T16:12:36.836Z,36.70
2019-02-04T16:15:10.858Z,46.67
2019-02-04T16:17:43.371Z,38.53
2019-02-04T16:20:19.283Z,36.23
2019-02-04T16:22:58.513Z,43.97
2019-02-04T16:25:25.890Z,41.23
2019-02-04T16:27:59.095Z,37.43
2019-02-04T16:30:35.982Z,45.80
2019-02-04T16:33:07.298Z,43.20
2019-02-04T16:35:37.677Z,47.47
2019-02-04T16:38:07.956Z,54.57
2019-02-04T16:40:38.436Z,42.87
2019-02-04T16:43:08.505Z,45.37
2019-02-04T16:45:39.894Z,48.10
2019-02-04T16:48:10.149Z,45.43
2019-02-04T16:50:58.927Z,48.73
2019-02-04T16:53:21.367Z,46.50
2019-02-04T16:55:53.094Z,49.50
2019-02-04T16:58:23.604Z,51.17
2019-02-04T17:00:55.136Z,49.93
2019-02-04T17:03:25.222Z,45.77
2019-02-04T17:05:55.288Z,39.80
2019-02-04T17:08:25.765Z,48.60
2019-02-04T17:10:56.280Z,48.47
2019-02-04T17:13:26.400Z,52.20
2019-02-04T17:15:56.492Z,51.10
2019-02-04T17:18:27.796Z,47.47
2019-02-04T17:20:58.606Z,43.17
2019-02-04T17:23:29.699Z,52.93
2019-02-04T17:25:59.900Z,50.67
2019-02-04T17:28:29.960Z,52.03
2019-02-04T17:31:00.036Z,116.57
2019-02-04T17:33:30.220Z,157.00
2019-02-04T17:36:00.291Z,89.83
2019-02-04T17:38:30.349Z,53.83
2019-02-04T17:41:05.594Z,50.73
2019-02-04T17:43:36.712Z,49.70
2019-02-04T17:46:07.171Z,55.00
2019-02-04T17:48:43.554Z,82.00
2019-02-04T17:51:23.628Z,68.63
2019-02-04T17:53:53.979Z,67.87
2019-02-04T17:56:24.120Z,76.30
2019-02-04T17:58:54.254Z,93.67
2019-02-04T18:01:24.530Z,126.00
2019-02-04T18:03:55.726Z,145.43
2019-02-04T18:06:25.823Z,146.83
2019-02-04T18:08:56.038Z,97.87
2019-02-04T18:11:26.232Z,103.03
2019-02-04T18:13:57.132Z,159.53
2019-02-04T18:16:27.341Z,127.23
2019-02-04T18:18:57.556Z,96.27
2019-02-04T18:21:28.042Z,102.07
2019-02-04T18:23:58.182Z,83.80
2019-02-04T18:26:38.197Z,65.00
2019-02-04T18:29:08.471Z,81.97
2019-02-04T18:31:38.868Z,70.17
2019-02-04T18:34:08.908Z,63.10
2019-02-04T18:36:40.337Z,62.93
2019-02-04T18:39:11.386Z,63.83
2019-02-04T18:41:41.779Z,66.43
2019-02-04T18:44:11.879Z,63.10
2019-02-04T18:46:51.179Z,68.20
2019-02-04T18:49:21.673Z,276.27
2019-02-04T18:51:51.785Z,143.20
2019-02-04T18:54:22.862Z,195.00
2019-02-04T18:56:53.557Z,315.87
2019-02-04T18:59:24.300Z,177.93
2019-02-04T19:01:55.312Z,238.33
2019-02-04T19:04:26.969Z,240.43
2019-02-04T19:06:58.179Z,194.27
2019-02-04T19:09:28.930Z,168.87
2019-02-04T19:11:59.632Z,164.20
2019-02-04T19:14:30.335Z,109.20
2019-02-04T19:17:01.219Z,85.73
2019-02-04T19:19:32.291Z,106.27
2019-02-04T19:22:03.082Z,100.40
2019-02-04T19:24:33.957Z,95.17
2019-02-04T19:27:04.958Z,74.83
2019-02-04T19:29:36.332Z,82.13
2019-02-04T19:32:07.307Z,82.53
2019-02-04T19:34:38.279Z,90.60
2019-02-04T19:37:08.955Z,112.73
2019-02-04T19:39:40.974Z,98.03
2019-02-04T19:42:11.935Z,66.83
2019-02-04T19:44:42.955Z,68.80
2019-02-04T19:47:13.690Z,65.93
2019-02-04T19:49:45.399Z,62.33
2019-02-04T19:52:16.263Z,65.87
2019-02-04T19:54:48.451Z,58.90
2019-02-04T19:57:29.678Z,56.53
2019-02-04T20:00:13.505Z,52.80
2019-02-04T20:02:50.682Z,51.63
2019-02-04T20:05:39.992Z,54.00
2019-02-04T20:08:23.667Z,51.27
2019-02-04T20:11:04.643Z,43.00
2019-02-04T20:13:49.485Z,41.57
2019-02-04T20:16:33.097Z,47.20
2019-02-04T20:19:24.628Z,41.60
2019-02-04T20:22:00.563Z,37.07
2019-02-04T20:24:40.742Z,39.23
2019-02-04T20:27:21.661Z,34.27
2019-02-04T20:30:07.236Z,36.23
2019-02-04T20:32:46.908Z,35.60
2019-02-04T20:35:30.365Z,37.03
2019-02-04T20:38:10.461Z,34.90
2019-02-04T20:40:53.902Z,32.67
2019-02-04T20:43:38.876Z,38.33
2019-02-04T20:46:22.496Z,29.07
2019-02-04T20:49:04.322Z,29.93
2019-02-04T20:51:37.357Z,23.33
2019-02-04T20:54:20.110Z,25.50
2019-02-04T20:56:57.960Z,18.13
2019-02-04T20:59:32.182Z,20.97
2019-02-04T21:02:11.548Z,23.97
2019-02-04T21:04:53.113Z,22.87
2019-02-04T21:07:24.313Z,17.97
2019-02-04T21:09:55.110Z,19.87
2019-02-04T21:12:25.829Z,20.93
2019-02-04T21:14:56.756Z,22.93
2019-02-04T21:17:27.598Z,17.07
2019-02-04T21:19:58.274Z,18.83
2019-02-04T21:22:30.105Z,17.40
2019-02-04T21:25:00.899Z,13.67
2019-02-04T21:27:31.694Z,17.90
2019-02-04T21:30:02.578Z,16.83
2019-02-04T21:32:33.254Z,12.33
2019-02-04T21:35:04.247Z,15.17
2019-02-04T21:37:34.924Z,19.23
2019-02-04T21:40:08.298Z,12.93
2019-02-04T21:42:40.958Z,17.53
2019-02-04T21:45:32.377Z,13.30
2019-02-04T21:48:03.148Z,13.93
2019-02-04T21:50:33.854Z,19.83
2019-02-04T21:53:04.685Z,13.10
2019-02-04T21:55:36.017Z,16.87
2019-02-04T21:58:08.556Z,13.20
2019-02-04T22:00:42.704Z,15.73
2019-02-04T22:03:13.471Z,16.20
2019-02-04T22:05:44.090Z,12.47
2019-02-04T22:08:14.739Z,9.80
2019-02-04T22:10:47.909Z,13.20
2019-02-04T22:13:18.721Z,14.03
2019-02-04T22:15:50.147Z,14.43
2019-02-04T22:18:21.034Z,15.40
2019-02-04T22:20:52.869Z,13.10
2019-02-04T22:23:23.799Z,13.17
2019-02-04T22:25:55.113Z,14.27
2019-02-04T22:28:25.849Z,10.63
2019-02-04T22:30:57.242Z,11.20
2019-02-04T22:33:28.063Z,16.73
2019-02-04T22:36:04.333Z,11.87
2019-02-04T22:38:35.444Z,13.77
2019-02-04T22:41:06.665Z,15.47
2019-02-04T22:43:37.517Z,12.80
2019-02-04T22:46:08.805Z,14.97
2019-02-04T22:48:40.625Z,10.77
2019-02-04T22:51:11.547Z,15.80
2019-02-04T22:53:42.486Z,12.17
2019-02-04T22:56:13.550Z,14.13
2019-02-04T22:58:44.440Z,11.43
2019-02-04T23:02:07.073Z,14.87
2019-02-04T23:04:38.123Z,13.77
2019-02-04T23:07:09.046Z,15.27
2019-02-04T23:09:41.005Z,14.13
2019-02-04T23:12:11.822Z,12.50
2019-02-04T23:14:42.746Z,10.13
2019-02-04T23:17:13.766Z,11.03
2019-02-04T23:19:44.488Z,12.43
2019-02-04T23:22:15.273Z,9.90
2019-02-04T23:24:47.845Z,11.90
2019-02-04T23:27:21.215Z,13.13
2019-02-04T23:29:52.136Z,9.37
2019-02-04T23:32:22.895Z,13.73
2019-02-04T23:34:53.850Z,14.77
2019-02-04T23:37:24.538Z,12.50
2019-02-04T23:39:55.820Z,12.03
2019-02-04T23:42:26.455Z,15.80
2019-02-04T23:44:57.342Z,9.50
2019-02-04T23:47:31.233Z,10.13
2019-02-04T23:50:02.059Z,10.53
2019-02-04T23:52:32.705Z,12.87
2019-02-04T23:55:03.494Z,14.47
2019-02-04T23:57:34.184Z,12.37
